Time;durP1;ratioP1;P1;durP2;ratioP2;P2;SDS_P1;SDS_P2;PMS_P1;PMS_P2;Temp;Humidity;BMP_temperature;BMP_pressure;BME280_temperature;BME280_humidity;BME280_pressure;Samples;Min_cycle;Max_cycle;Signal;HPM_P1;HPM_P2
2022/11/08 00:17:23;;;;;;;57.25;28.35;;;;;;;6.36;100.00;99344.81;6329370;22;1852319;-96
2022/11/08 00:19:50;;;;;;;57.00;29.45;;;;;;;6.54;100.00;99380.03;6399056;22;20041;-95
2022/11/08 00:22:28;;;;;;;52.35;25.80;;;;;;;6.52;100.00;99382.66;6399155;22;20018;-96
2022/11/08 00:25:16;;;;;;;45.38;22.55;;;;;;;6.27;100.00;99339.53;6399916;22;20014;-95
2022/11/08 00:27:53;;;;;;;42.70;21.65;;;;;;;6.32;100.00;99350.09;6398561;22;20014;-96
2022/11/08 00:31:13;;;;;;;45.47;22.70;;;;;;;6.27;100.00;99343.97;6398453;22;20025;-95
2022/11/08 00:40:22;;;;;;;48.42;25.02;;;;;;;6.28;100.00;99343.06;6239175;23;20008;-96
2022/11/08 00:42:58;;;;;;;45.00;22.95;;;;;;;6.27;100.00;99341.31;6240943;23;20023;-95
2022/11/08 00:45:27;;;;;;;50.95;24.63;;;;;;;6.30;100.00;99342.16;6240480;23;20040;-94
2022/11/08 00:47:54;;;;;;;52.72;25.67;;;;;;;6.29;100.00;99342.16;6236785;23;20461;-95
2022/11/08 00:50:22;;;;;;;48.25;23.23;;;;;;;6.48;100.00;99374.75;6238490;23;20080;-94
2022/11/08 00:52:54;;;;;;;46.15;23.10;;;;;;;6.27;100.00;99341.31;6239296;23;20020;-95
2022/11/08 00:55:22;;;;;;;47.95;21.40;;;;;;;6.23;100.00;99337.78;6240246;22;20016;-94
2022/11/08 00:57:57;;;;;;;40.85;19.60;;;;;;;6.24;100.00;99342.16;6209941;23;20387;-96
2022/11/08 01:00:24;;;;;;;39.85;18.83;;;;;;;6.21;100.00;99347.47;6210405;23;20044;-96
2022/11/08 01:32:53;;;;;;;54.92;24.17;;;;;;;5.83;100.00;99337.72;6335069;22;20072;-94
2022/11/08 01:35:19;;;;;;;63.92;27.52;;;;;;;5.88;100.00;99343.03;6334652;22;20014;-96
2022/11/08 01:37:45;;;;;;;55.90;26.30;;;;;;;5.86;100.00;99343.03;6334938;22;20071;-94
2022/11/08 01:40:12;;;;;;;57.85;26.88;;;;;;;5.85;100.00;99338.59;6304110;22;20027;-94
2022/11/08 01:42:41;;;;;;;57.92;25.08;;;;;;;5.90;100.00;99344.78;6303040;22;20069;-93
2022/11/08 01:45:13;;;;;;;47.05;24.08;;;;;;;5.91;100.00;99330.69;6303445;22;20628;-93
2022/11/08 01:47:40;;;;;;;47.97;22.95;;;;;;;5.88;100.00;99330.72;6302872;22;20020;-95
2022/11/08 01:50:13;;;;;;;48.63;21.60;;;;;;;6.05;100.00;99367.72;6303710;22;20039;-95
2022/11/08 01:52:44;;;;;;;51.45;22.00;;;;;;;5.88;100.00;99346.53;6304446;22;20012;-95
2022/11/08 01:55:20;;;;;;;46.13;21.45;;;;;;;5.74;100.00;99337.72;6305132;22;20018;-95
2022/11/08 01:57:56;;;;;;;39.95;21.08;;;;;;;5.70;100.00;99341.22;6304350;22;20310;-95
2022/11/08 02:00:23;;;;;;;40.10;20.92;;;;;;;5.69;100.00;99335.06;6303062;22;20026;-95
2022/11/08 02:02:57;;;;;;;47.03;21.63;;;;;;;5.73;100.00;99330.69;6302567;22;20079;-95
2022/11/08 02:05:30;;;;;;;41.65;20.40;;;;;;;5.76;100.00;99338.59;6301993;22;20022;-94
2022/11/08 02:08:04;;;;;;;50.30;22.08;;;;;;;5.71;100.00;99332.44;6302898;22;20027;-94
2022/11/08 02:10:41;;;;;;;43.10;21.33;;;;;;;5.89;100.00;99368.53;6303353;22;20039;-95
2022/11/08 02:13:11;;;;;;;44.45;21.50;;;;;;;5.63;100.00;99336.81;6304261;22;20071;-95
2022/11/08 02:15:37;;;;;;;48.95;22.23;;;;;;;5.62;100.00;99337.72;6302269;22;20038;-94
2022/11/08 02:18:04;;;;;;;47.85;22.55;;;;;;;5.55;100.00;99332.44;6296359;22;20027;-95
2022/11/08 02:20:34;;;;;;;47.95;23.17;;;;;;;5.70;100.00;99370.25;6296795;22;20045;-96
2022/11/08 02:23:11;;;;;;;39.63;19.20;;;;;;;5.52;100.00;99335.03;6297139;22;20329;-94
2022/11/08 02:25:51;;;;;;;39.38;18.95;;;;;;;5.62;100.00;99353.56;6296640;22;20019;-94
2022/11/08 02:28:18;;;;;;;43.55;20.42;;;;;;;5.50;100.00;99336.78;6297494;22;20019;-95
2022/11/08 02:30:47;;;;;;;41.08;20.65;;;;;;;5.52;100.00;99332.41;6295846;22;20019;-95
2022/11/08 02:33:15;;;;;;;41.30;20.25;;;;;;;5.58;100.00;99330.66;6295153;22;20015;-95
2022/11/08 02:35:43;;;;;;;50.97;21.80;;;;;;;5.58;100.00;99334.19;6296533;22;20012;-95
2022/11/08 02:38:10;;;;;;;48.40;22.95;;;;;;;5.71;100.00;99350.91;6297614;22;20047;-96
2022/11/08 02:40:52;;;;;;;51.35;24.77;;;;;;;5.52;100.00;99328.88;6297633;22;20016;-94
2022/11/08 02:43:24;;;;;;;44.17;22.75;;;;;;;5.44;100.00;99327.97;6296621;22;20016;-94
2022/11/08 02:45:51;;;;;;;50.33;23.75;;;;;;;5.45;100.00;99340.31;6296062;22;20016;-95
2022/11/08 02:48:19;;;;;;;48.88;23.67;;;;;;;5.32;100.00;99332.34;6296683;22;20026;-94
2022/11/08 02:50:46;;;;;;;45.70;22.33;;;;;;;5.33;100.00;99330.59;6297590;22;20046;-94
2022/11/08 02:53:18;;;;;;;47.00;21.63;;;;;;;5.30;100.00;99326.19;6296078;22;20251;-95
2022/11/08 02:55:44;;;;;;;40.35;21.65;;;;;;;5.31;100.00;99335.88;6297112;22;20099;-95
2022/11/08 02:58:14;;;;;;;41.33;21.23;;;;;;;5.48;100.00;99372.84;6295739;22;20016;-96
2022/11/08 03:00:41;;;;;;;43.47;22.00;;;;;;;5.48;100.00;99366.69;6295832;22;20032;-94
2022/11/08 03:03:07;;;;;;;44.70;21.60;;;;;;;5.26;100.00;99328.81;6295215;22;20016;-95
2022/11/08 03:05:36;;;;;;;46.25;21.45;;;;;;;5.25;100.00;99327.06;6295732;22;20035;-95
2022/11/08 03:08:05;;;;;;;42.78;21.50;;;;;;;5.45;100.00;99367.56;6294902;22;20049;-95
2022/11/08 03:10:33;;;;;;;50.33;23.90;;;;;;;5.18;100.00;99336.69;6295677;22;20023;-94
2022/11/08 03:13:04;;;;;;;43.65;22.77;;;;;;;5.11;100.00;99322.59;6295342;22;20015;-94
2022/11/08 03:15:35;;;;;;;48.33;22.67;;;;;;;5.12;100.00;99337.56;6294715;22;20025;-94
2022/11/08 03:18:01;;;;;;;50.42;22.95;;;;;;;5.10;100.00;99331.41;6295087;22;20000;-94
2022/11/08 03:20:28;;;;;;;47.53;22.70;;;;;;;5.10;100.00;99339.31;6294313;22;20016;-95
2022/11/08 03:22:58;;;;;;;47.08;22.20;;;;;;;5.05;100.00;99342.78;6295245;22;20067;-95
2022/11/08 03:25:25;;;;;;;42.47;20.77;;;;;;;4.99;100.00;99337.47;6294546;22;20022;-94
2022/11/08 03:27:53;;;;;;;37.83;19.88;;;;;;;4.97;100.00;99347.16;6295427;22;20016;-94
2022/11/08 03:30:20;;;;;;;37.03;19.65;;;;;;;4.96;100.00;99351.53;6294804;22;20073;-95
2022/11/08 03:32:49;;;;;;;43.38;20.50;;;;;;;4.95;100.00;99347.16;6294978;22;20023;-95
2022/11/08 03:35:16;;;;;;;42.33;19.67;;;;;;;4.93;100.00;99338.34;6294915;22;20012;-95
2022/11/08 03:37:49;;;;;;;44.03;20.88;;;;;;;5.02;100.00;99345.44;6295133;22;20020;-95
2022/11/08 03:40:15;;;;;;;45.33;20.80;;;;;;;4.97;100.00;99332.22;6293708;22;20020;-94
2022/11/08 03:42:41;;;;;;;39.60;20.30;;;;;;;4.99;100.00;99327.84;6294704;22;20019;-95
2022/11/08 03:45:10;;;;;;;39.33;20.83;;;;;;;5.02;100.00;99338.38;6294115;22;20325;-94
2022/11/08 03:47:37;;;;;;;47.65;22.33;;;;;;;5.21;100.00;99352.53;6295122;22;20016;-95
2022/11/08 03:50:06;;;;;;;40.40;20.35;;;;;;;5.12;100.00;99341.97;6295286;22;20024;-93
2022/11/08 03:52:39;;;;;;;39.83;19.60;;;;;;;5.21;100.00;99351.66;6294142;22;20024;-94
2022/11/08 03:55:06;;;;;;;36.05;19.13;;;;;;;5.06;100.00;99339.28;6295407;22;20012;-95
2022/11/08 03:57:32;;;;;;;38.63;18.30;;;;;;;5.15;100.00;99352.50;6294554;22;20105;-93
2022/11/08 04:00:00;;;;;;;35.63;18.67;;;;;;;5.07;100.00;99336.63;6294523;22;20016;-94
2022/11/08 04:02:27;;;;;;;41.40;18.50;;;;;;;5.03;100.00;99340.16;6295291;22;20004;-96
2022/11/08 04:04:54;;;;;;;33.60;16.75;;;;;;;5.05;100.00;99341.06;6294668;22;20015;-94
2022/11/08 04:07:27;;;;;;;37.88;17.20;;;;;;;4.99;100.00;99337.47;6294469;22;20323;-95
2022/11/08 04:09:54;;;;;;;33.53;17.67;;;;;;;5.01;100.00;99355.09;6293760;22;20019;-94
2022/11/08 04:15:28;;;;;;;34.90;17.67;;;;;;;5.16;100.00;99383.25;5086094;27;20384;-94
2022/11/08 04:34:24;;;;;;;20.57;11.23;;;;;;;4.97;100.00;99340.13;6304740;22;1632149;-95
2022/11/08 04:36:52;;;;;;;26.00;12.80;;;;;;;5.13;100.00;99372.72;6365272;22;20046;-96
2022/11/08 04:39:18;;;;;;;25.33;13.93;;;;;;;5.11;100.00;99377.97;6363651;22;20022;-95
2022/11/08 04:41:47;;;;;;;29.08;14.15;;;;;;;5.07;100.00;99365.63;6364761;22;20099;-96
2022/11/08 04:44:14;;;;;;;30.85;13.75;;;;;;;4.99;100.00;99333.13;6364287;22;19999;-96
2022/11/08 04:46:40;;;;;;;33.40;14.57;;;;;;;5.12;100.00;99373.59;6364049;22;20049;-95
2022/11/08 04:49:07;;;;;;;25.63;13.38;;;;;;;4.86;100.00;99334.81;6363857;22;20014;-96
2022/11/08 04:51:35;;;;;;;43.63;19.83;;;;;;;5.01;100.00;99365.63;6363677;22;20072;-96
2022/11/08 04:54:03;;;;;;;29.50;15.38;;;;;;;4.77;100.00;99334.78;6365030;22;20015;-96
2022/11/08 04:56:31;;;;;;;27.25;15.00;;;;;;;4.73;100.00;99331.22;6363646;22;20015;-96
2022/11/08 04:58:58;;;;;;;25.40;13.60;;;;;;;4.68;100.00;99321.53;6365755;22;20072;-93
2022/11/08 05:01:26;;;;;;;25.27;12.95;;;;;;;4.70;100.00;99338.22;6361747;22;20014;-94
2022/11/08 05:03:53;;;;;;;25.92;12.73;;;;;;;4.64;100.00;99327.66;6333302;22;20102;-94
2022/11/08 05:06:21;;;;;;;26.85;13.20;;;;;;;4.64;100.00;99332.91;6332966;22;20076;-93
2022/11/08 05:08:50;;;;;;;25.42;12.52;;;;;;;4.62;100.00;99338.19;6332723;22;20445;-94
2022/11/08 05:11:18;;;;;;;31.25;14.07;;;;;;;4.59;100.00;99339.91;6333390;22;20011;-96
2022/11/08 05:13:44;;;;;;;31.70;15.27;;;;;;;4.56;100.00;99340.78;6333600;22;20011;-94
2022/11/08 05:16:13;;;;;;;33.17;14.57;;;;;;;4.66;100.00;99355.78;6332455;22;20019;-94
2022/11/08 05:18:39;;;;;;;32.90;16.48;;;;;;;4.57;100.00;99328.50;6333866;22;20042;-95
2022/11/08 05:24:12;;;;;;;35.10;16.10;;;;;;;4.67;100.00;99333.81;5147000;27;20389;-95
2022/11/08 05:26:41;;;;;;;43.33;17.75;;;;;;;4.64;100.00;99333.81;5148684;27;20051;-95
2022/11/08 05:29:11;;;;;;;59.47;20.27;;;;;;;4.87;100.00;99372.56;5148432;27;20040;-95
2022/11/08 05:31:38;;;;;;;68.47;19.95;;;;;;;4.73;100.00;99348.81;5148209;27;20035;-94
2022/11/08 05:34:06;;;;;;;67.88;18.98;;;;;;;4.89;100.00;99374.34;5149532;27;20039;-96
2022/11/08 05:36:32;;;;;;;161.57;21.38;;;;;;;4.64;100.00;99341.72;5147311;27;20053;-96
2022/11/08 05:39:02;;;;;;;122.50;20.17;;;;;;;4.60;100.00;99345.22;5149623;27;20069;-95
2022/11/08 05:41:34;;;;;;;42.28;15.93;;;;;;;4.59;100.00;99342.56;5148034;27;20043;-95
2022/11/08 05:44:01;;;;;;;35.80;16.90;;;;;;;4.64;100.00;99352.25;5149527;27;20051;-95
2022/11/08 05:46:28;;;;;;;42.45;17.55;;;;;;;4.62;100.00;99356.63;5149524;27;20078;-94
2022/11/08 05:48:55;;;;;;;33.30;17.05;;;;;;;4.59;100.00;99361.88;5149996;27;20044;-94
2022/11/08 05:51:21;;;;;;;35.40;17.10;;;;;;;4.57;100.00;99363.59;5148897;27;20043;-95
2022/11/08 05:53:52;;;;;;;40.28;17.13;;;;;;;4.54;100.00;99355.69;5149805;27;20051;-95
2022/11/08 05:56:20;;;;;;;48.25;19.67;;;;;;;4.50;100.00;99351.28;5150621;27;20141;-96
2022/11/08 05:58:56;;;;;;;71.10;20.77;;;;;;;4.48;100.00;99358.28;5149648;27;20039;-95
2022/11/08 06:01:22;;;;;;;118.38;22.52;;;;;;;4.48;100.00;99364.44;5149244;27;20069;-95
2022/11/08 06:03:59;;;;;;;110.78;22.55;;;;;;;4.48;100.00;99371.44;5149917;27;20075;-95
2022/11/08 06:06:50;;;;;;;126.53;23.40;;;;;;;4.55;100.00;99365.34;5150060;27;20071;-96
2022/11/08 06:09:18;;;;;;;;;;;;;;;4.70;100.00;99394.41;5150738;27;20040;-96
2022/11/08 06:11:46;;;;;;;80.90;21.67;;;;;;;4.51;100.00;99355.66;5151193;27;19937;-94
2022/11/08 06:14:16;;;;;;;84.10;21.02;;;;;;;4.64;100.00;99380.34;5150794;27;20033;-96
2022/11/08 06:16:45;;;;;;;52.15;21.85;;;;;;;4.67;100.00;99381.25;5151811;27;20035;-96
2022/11/08 06:19:13;;;;;;;73.00;20.88;;;;;;;4.78;100.00;99391.84;5151435;27;20039;-96
2022/11/08 06:21:58;;;;;;;69.63;20.20;;;;;;;4.67;100.00;99364.56;5151441;27;20051;-95
2022/11/08 06:24:25;;;;;;;87.00;21.40;;;;;;;4.73;100.00;99378.66;5149098;28;20059;-95
2022/11/08 06:33:47;;;;;;;76.25;18.73;;;;;;;4.79;100.00;99374.28;5101902;28;20138;-95
2022/11/08 06:36:20;;;;;;;75.82;19.67;;;;;;;4.79;100.00;99372.53;5094962;28;20056;-96
2022/11/08 06:38:56;;;;;;;69.35;19.73;;;;;;;4.84;100.00;99372.56;5094458;28;20045;-96
2022/11/08 06:41:46;;;;;;;49.10;18.30;;;;;;;4.94;100.00;99385.81;5094332;28;20049;-96
2022/11/08 06:44:31;;;;;;;45.90;17.52;;;;;;;5.06;100.00;99402.56;5094366;28;20037;-96
2022/11/08 06:47:13;;;;;;;68.53;18.95;;;;;;;5.22;100.00;99411.41;5093735;28;20053;-95
2022/11/08 06:49:42;;;;;;;68.10;20.17;;;;;;;5.13;100.00;99385.88;5094170;28;20059;-95
2022/11/08 06:52:12;;;;;;;59.70;21.38;;;;;;;5.31;100.00;99417.63;5094156;28;20071;-96
2022/11/08 06:54:58;;;;;;;48.28;20.45;;;;;;;5.32;100.00;99415.88;5094171;28;20037;-96
2022/11/08 06:57:38;;;;;;;54.03;20.42;;;;;;;5.14;100.00;99382.41;5094829;28;20063;-96
2022/11/08 07:00:18;;;;;;;37.70;18.17;;;;;;;5.39;100.00;99419.41;5094279;28;20033;-96
2022/11/08 07:03:11;;;;;;;33.85;16.33;;;;;;;5.32;100.00;99392.13;5094711;28;20053;-96
2022/11/08 07:05:46;;;;;;;36.70;17.17;;;;;;;5.37;100.00;99390.38;5094007;28;20068;-96
2022/11/08 07:08:20;;;;;;;39.35;17.27;;;;;;;5.42;100.00;99388.66;5133958;28;20047;-96
2022/11/08 07:10:55;;;;;;;34.90;17.63;;;;;;;5.58;100.00;99401.91;5136087;28;20044;-96
2022/11/08 07:13:37;;;;;;;37.85;18.67;;;;;;;5.60;100.00;99397.50;5136824;28;20062;-95
2022/11/08 07:20:21;;;;;;;52.83;29.35;;;;;;;6.10;100.00;99417.88;5094601;28;20096;-96
2022/11/08 07:23:31;;;;;;;53.33;28.50;;;;;;;6.13;100.00;99399.41;5093654;28;20037;-96
2022/11/08 07:26:48;;;;;;;55.08;27.83;;;;;;;6.31;100.00;99401.16;5062412;28;20054;-95
2022/11/08 07:29:26;;;;;;;45.10;22.02;;;;;;;6.47;100.00;99395.00;5091395;28;20071;-96
2022/11/08 07:31:53;;;;;;;49.75;20.85;;;;;;;6.63;100.00;99402.91;5089297;28;20059;-96
2022/11/08 07:34:25;;;;;;;50.42;23.05;;;;;;;6.70;100.00;99410.84;5088684;28;20041;-95
2022/11/08 07:36:54;;;;;;;49.97;21.83;;;;;;;6.97;100.00;99431.06;5088985;28;20028;-95
2022/11/08 07:39:23;;;;;;;47.42;20.02;;;;;;;6.83;100.00;99401.16;5089410;28;20291;-96
2022/11/08 07:41:49;;;;;;;42.78;21.10;;;;;;;6.94;100.00;99423.16;5090214;28;20410;-96
2022/11/08 07:44:19;;;;;;;44.80;19.77;;;;;;;6.89;100.00;99405.53;5091371;28;20120;-96
2022/11/08 07:46:52;;;;;;;36.92;17.55;;;;;;;6.91;100.00;99398.47;5092891;28;20048;-96
2022/11/08 07:49:19;;;;;;;38.50;17.85;;;;;;;7.02;100.00;99409.88;5094236;28;20063;-96
2022/11/08 07:51:49;;;;;;;30.42;14.85;;;;;;;7.19;100.00;99409.84;5133997;27;20067;-96
2022/11/08 07:54:17;;;;;;;25.13;12.90;;;;;;;7.16;100.00;99405.47;5134665;27;20047;-96
2022/11/08 07:56:49;;;;;;;29.15;14.07;;;;;;;7.22;100.00;99404.53;5135053;28;20058;-96
2022/11/08 07:59:36;;;;;;;41.17;19.17;;;;;;;7.26;100.00;99400.13;5136697;28;20052;-95
2022/11/08 08:02:16;;;;;;;46.25;21.58;;;;;;;7.53;100.00;99445.00;5135344;28;20047;-96
2022/11/08 08:04:51;;;;;;;57.80;23.52;;;;;;;7.58;100.00;99442.34;5136689;28;20043;-96
2022/11/08 08:07:34;;;;;;;;;;;;;;;;;;;;;
2022/11/08 08:10:06;;;;;;;39.25;19.40;;;;;;;7.54;100.00;99409.72;5135793;28;20095;-96
2022/11/08 08:13:22;;;;;;;;;;;;;;;;;;;;;
2022/11/08 08:16:07;;;;;;;41.42;19.23;;;;;;;7.75;100.00;99399.91;5094046;28;20048;-96
2022/11/08 08:18:56;;;;;;;44.33;19.83;;;;;;;7.89;100.00;99406.00;5095116;28;20044;-96
2022/11/08 08:21:27;;;;;;;57.97;25.83;;;;;;;7.99;100.00;99441.25;5092489;28;20048;-94
2022/11/08 08:23:59;;;;;;;51.45;21.92;;;;;;;7.76;100.00;99430.78;5091271;28;20045;-96
2022/11/08 08:26:32;;;;;;;69.13;28.33;;;;;;;7.62;100.00;99412.34;5092760;28;20045;-96
2022/11/08 08:29:14;;;;;;;72.70;30.20;;;;;;;7.69;100.00;99424.63;5092699;28;20048;-96
2022/11/08 08:31:46;;;;;;;116.93;38.47;;;;;;;7.89;100.00;99421.88;5091062;28;20048;-96
2022/11/08 08:34:14;;;;;;;119.20;42.75;;;;;;;8.05;100.00;99406.78;5091904;28;20041;-95
2022/11/08 08:36:51;;;;;;;157.75;51.55;;;;;;;8.10;100.00;99412.06;5074867;28;20525;-96
2022/11/08 08:39:20;;;;;;;;;;;;;;;8.50;100.00;99440.94;5091480;28;20052;-96
2022/11/08 08:41:49;;;;;;;56.83;23.50;;;;;;;8.13;100.00;99449.09;5089822;28;19930;-96
2022/11/08 08:44:19;;;;;;;56.75;24.92;;;;;;;8.09;100.00;99455.31;5088689;28;20051;-95
2022/11/08 08:46:52;;;;;;;53.10;22.98;;;;;;;7.98;100.00;99427.16;5090126;28;20068;-96
2022/11/08 08:49:20;;;;;;;40.42;18.67;;;;;;;8.18;100.00;99418.19;5091711;28;20066;-95
2022/11/08 08:52:01;;;;;;;53.67;22.75;;;;;;;8.19;100.00;99420.81;5093019;28;20044;-96
2022/11/08 09:01:07;;;;;;;42.88;19.73;;;;;;;8.27;100.00;99438.44;4990768;28;20062;-96
2022/11/08 09:04:01;;;;;;;40.42;20.23;;;;;;;8.25;100.00;99398.69;4993670;28;20037;-96
2022/11/08 09:34:15;;;;;;;34.85;18.50;;;;;;;9.69;100.00;99411.38;5084177;28;20053;-95
2022/11/08 09:36:44;;;;;;;37.60;19.00;;;;;;;10.00;100.00;99426.03;5086826;28;20052;-96
2022/11/08 09:39:10;;;;;;;37.85;19.70;;;;;;;10.23;99.97;99435.41;5087396;28;20051;-95
2022/11/08 09:42:06;;;;;;;37.22;19.48;;;;;;;10.10;97.07;99408.16;5088613;28;20041;-95
2022/11/08 09:45:00;;;;;;;32.72;18.08;;;;;;;10.13;98.45;99399.25;5089625;28;20048;-96
2022/11/08 09:47:33;;;;;;;34.30;18.25;;;;;;;10.29;96.18;99403.47;5088390;28;20072;-95
2022/11/08 09:57:27;;;;;;;31.80;19.08;;;;;;;10.90;94.11;99434.34;4972694;29;20043;-96
2022/11/08 10:00:05;;;;;;;31.33;18.83;;;;;;;10.87;92.98;99402.47;4969561;29;20027;-96
2022/11/08 10:02:32;;;;;;;35.00;18.50;;;;;;;11.03;91.22;99402.19;4969483;29;20044;-96
2022/11/08 10:05:04;;;;;;;29.70;17.58;;;;;;;11.16;91.57;99395.72;4968566;29;20505;-94
2022/11/08 10:11:34;;;;;;;34.00;17.17;;;;;;;11.37;89.37;99386.44;4973642;29;20043;-96
2022/11/08 10:14:27;;;;;;;31.38;17.35;;;;;;;11.46;89.48;99393.38;4975476;29;20043;-96
2022/11/08 10:17:15;;;;;;;30.73;16.85;;;;;;;11.68;89.50;99425.75;4977227;29;20086;-96
2022/11/08 10:19:57;;;;;;;34.38;17.23;;;;;;;11.45;89.56;99388.94;4977420;29;20075;-96
2022/11/08 10:22:36;;;;;;;31.05;17.52;;;;;;;11.39;89.64;99381.09;4977134;28;20063;-96
2022/11/08 10:25:20;;;;;;;31.02;17.42;;;;;;;11.41;90.03;99379.28;5053967;28;20051;-95
2022/11/08 10:27:53;;;;;;;35.42;17.77;;;;;;;11.41;90.19;99376.63;5034949;28;20473;-95
2022/11/08 10:30:27;;;;;;;28.85;17.50;;;;;;;11.48;90.81;99375.56;5051239;28;20038;-95
2022/11/08 10:32:57;;;;;;;33.25;17.38;;;;;;;11.58;90.49;99393.13;5076400;28;20032;-96
2022/11/08 10:35:36;;;;;;;31.95;16.85;;;;;;;11.48;90.21;99372.91;5115599;28;20052;-96
2022/11/08 10:38:18;;;;;;;30.50;17.17;;;;;;;11.47;91.00;99371.13;5114567;28;20032;-96
2022/11/08 10:41:10;;;;;;;26.48;16.73;;;;;;;11.70;90.00;99397.28;5115966;28;20040;-96
2022/11/08 10:43:59;;;;;;;28.92;16.92;;;;;;;11.57;90.29;99361.19;5117322;28;20044;-96
2022/11/08 12:00:07;;;;;;;13.40;8.63;;;;;;;13.08;82.35;99273.81;1476815;23;20297;-90
2022/11/08 12:02:52;;;;;;;14.40;8.43;;;;;;;13.21;82.22;99286.81;4979326;28;20123;-95
2022/11/08 12:05:28;;;;;;;15.35;9.10;;;;;;;13.26;81.27;99260.84;4979969;28;20126;-95
2022/11/08 12:08:07;;;;;;;15.27;7.95;;;;;;;13.42;80.53;99274.63;4979235;28;20444;-94
2022/11/08 12:10:50;;;;;;;13.02;7.18;;;;;;;13.40;80.50;99272.00;4982640;28;20080;-95
2022/11/08 12:13:26;;;;;;;12.18;8.15;;;;;;;13.41;80.35;99265.75;4977916;28;20042;-96
2022/11/08 12:15:59;;;;;;;14.25;8.07;;;;;;;13.43;80.08;99268.38;4979444;28;20050;-96
2022/11/08 12:18:40;;;;;;;12.38;7.63;;;;;;;13.42;80.53;99259.47;4980778;28;20043;-96
2022/11/08 12:21:11;;;;;;;11.27;7.05;;;;;;;13.41;80.55;99259.53;4980277;28;20051;-95
2022/11/08 12:24:09;;;;;;;12.95;6.88;;;;;;;13.59;79.90;99274.09;4980580;28;20054;-96
2022/11/08 12:26:45;;;;;;;12.93;6.85;;;;;;;13.48;80.93;99253.94;4980901;28;20043;-96
2022/11/08 12:29:23;;;;;;;14.18;7.00;;;;;;;13.74;80.07;99273.63;4981346;28;20046;-96
2022/11/08 12:32:05;;;;;;;11.13;7.10;;;;;;;13.68;81.34;99247.09;4981193;28;20050;-96
2022/11/08 12:34:45;;;;;;;12.63;7.95;;;;;;;13.67;80.11;99240.00;4980094;28;20050;-96
2022/11/08 12:37:25;;;;;;;12.45;7.28;;;;;;;13.74;80.07;99236.19;4980872;28;20082;-96
2022/11/08 12:39:58;;;;;;;11.30;7.45;;;;;;;13.81;80.24;99244.88;4981282;28;20106;-96
2022/11/08 12:42:38;;;;;;;14.20;7.90;;;;;;;13.78;80.10;99245.88;4982450;28;20047;-95
2022/11/08 12:45:20;;;;;;;11.88;7.85;;;;;;;13.83;80.62;99245.72;4981809;28;20563;-96
2022/11/08 12:47:56;;;;;;;14.90;8.35;;;;;;;13.86;80.79;99250.97;4981484;28;20058;-96
2022/11/08 12:50:34;;;;;;;14.35;8.27;;;;;;;13.84;81.14;99226.97;4987642;28;20132;-96
2022/11/08 12:53:35;;;;;;;12.82;7.20;;;;;;;13.87;81.09;99232.19;4985412;28;20046;-95
2022/11/08 12:56:04;;;;;;;11.05;7.72;;;;;;;13.89;80.49;99226.81;4983494;28;20054;-95
2022/11/08 12:58:35;;;;;;;14.40;8.30;;;;;;;13.89;81.52;99218.78;4979944;28;20142;-96
2022/11/08 13:01:05;;;;;;;13.13;8.30;;;;;;;14.01;81.61;99239.78;4978239;28;20063;-96
2022/11/08 13:03:59;;;;;;;14.00;8.50;;;;;;;13.90;81.69;99216.06;4978649;28;20588;-96
2022/11/08 13:06:31;;;;;;;14.55;9.63;;;;;;;14.02;81.13;99214.78;4981894;28;20052;-96
2022/11/08 13:09:06;;;;;;;14.60;8.73;;;;;;;14.04;82.34;99220.06;4983163;28;20057;-96
2022/11/08 13:11:44;;;;;;;12.32;9.20;;;;;;;14.09;82.96;99221.66;4984190;28;20110;-96
2022/11/08 13:14:17;;;;;;;15.52;10.00;;;;;;;14.18;83.90;99233.84;4982285;28;20145;-96
2022/11/08 13:16:44;;;;;;;19.17;10.95;;;;;;;14.16;83.52;99216.97;4980422;28;20102;-95
2022/11/08 13:19:28;;;;;;;15.65;9.68;;;;;;;14.24;84.86;99236.31;4982746;28;20076;-96
2022/11/08 13:21:54;;;;;;;13.63;9.70;;;;;;;14.32;84.06;99218.19;4983877;28;20051;-96
2022/11/08 13:24:42;;;;;;;13.57;7.82;;;;;;;14.33;83.17;99214.59;4985361;28;20061;-96
2022/11/08 13:27:32;;;;;;;14.20;7.63;;;;;;;14.43;81.64;99230.31;4936343;29;20055;-96
2022/11/08 13:30:57;;;;;;;11.73;6.90;;;;;;;14.20;82.46;99199.88;4933573;29;20056;-96
2022/11/08 15:36:42;;;;;;;6.18;4.10;;;;;;;12.87;95.75;99202.38;1124308;23;20304;-94
2022/11/08 15:39:24;;;;;;;8.45;4.43;;;;;;;12.42;97.04;99166.28;4992072;28;20079;-93
2022/11/08 15:42:01;;;;;;;8.90;4.72;;;;;;;12.47;96.73;99180.38;4993393;28;20042;-96
2022/11/08 15:44:35;;;;;;;8.30;4.55;;;;;;;12.39;96.12;99163.72;4994885;28;20504;-96
2022/11/08 15:47:11;;;;;;;7.15;4.50;;;;;;;12.42;95.69;99160.06;4993481;28;20043;-95
2022/11/08 15:49:43;;;;;;;8.30;4.45;;;;;;;12.41;95.66;99175.22;4990815;28;20404;-96
2022/11/08 15:52:15;;;;;;;8.23;4.68;;;;;;;12.35;95.43;99174.50;4992183;28;20053;-95
2022/11/08 15:54:57;;;;;;;7.35;4.45;;;;;;;12.15;95.92;99162.59;4992583;28;20070;-96
2022/11/08 15:57:24;;;;;;;6.07;4.20;;;;;;;12.11;96.67;99169.78;4993274;28;20558;-95
2022/11/08 15:59:50;;;;;;;6.65;4.57;;;;;;;12.09;96.87;99176.97;4991196;28;20051;-96
2022/11/08 16:02:21;;;;;;;11.63;4.72;;;;;;;12.08;97.44;99188.56;4992394;28;20141;-96
2022/11/08 16:04:54;;;;;;;8.77;4.78;;;;;;;11.87;97.98;99163.28;4991285;28;20050;-96
2022/11/08 16:07:42;;;;;;;8.85;4.88;;;;;;;11.77;98.88;99161.78;4994409;28;20031;-95
2022/11/08 16:10:15;;;;;;;9.05;5.38;;;;;;;11.87;99.87;99192.59;4995569;28;20043;-95
2022/11/08 16:13:06;;;;;;;9.85;5.55;;;;;;;11.58;100.00;99160.47;4997897;28;20091;-95
2022/11/08 16:15:45;;;;;;;9.70;5.43;;;;;;;11.37;100.00;99154.78;4995371;28;20043;-95
2022/11/08 16:18:18;;;;;;;;;;;;;;;11.53;100.00;99195.22;4994033;28;20098;-95
2022/11/08 16:20:49;;;;;;;13.20;5.90;;;;;;;11.27;100.00;99161.22;4992040;28;19918;-95
2022/11/08 16:32:39;;;;;;;12.40;6.97;;;;;;;11.18;100.00;99167.66;5555640;23;20087;-96
2022/11/08 16:35:13;;;;;;;14.75;7.00;;;;;;;11.34;100.00;99173.47;4974861;29;20054;-96
2022/11/08 16:37:42;;;;;;;9.10;6.60;;;;;;;11.46;100.00;99194.50;4970433;29;20051;-95
2022/11/08 16:40:18;;;;;;;16.25;7.00;;;;;;;11.16;100.00;99168.59;4970549;29;20051;-95
2022/11/08 16:42:59;;;;;;;10.27;6.10;;;;;;;11.08;100.00;99174.09;4971320;29;20046;-95
2022/11/08 16:45:27;;;;;;;12.93;7.10;;;;;;;11.02;100.00;99171.59;4968916;28;20039;-95
2022/11/08 16:47:56;;;;;;;10.70;6.80;;;;;;;10.97;100.00;99158.34;4982200;28;20074;-96
2022/11/08 16:50:25;;;;;;;16.73;8.15;;;;;;;11.00;100.00;99170.75;4985563;28;20369;-95
2022/11/08 16:52:51;;;;;;;12.23;7.28;;;;;;;10.89;100.00;99163.00;4986073;28;20043;-95
2022/11/08 16:55:22;;;;;;;13.85;8.15;;;;;;;10.85;100.00;99169.28;4985637;28;20051;-95
2022/11/08 16:57:49;;;;;;;17.73;9.40;;;;;;;10.87;100.00;99184.31;4985995;28;20051;-95
2022/11/08 17:00:17;;;;;;;14.45;9.98;;;;;;;10.80;100.00;99166.72;4985459;28;20082;-94
2022/11/08 17:02:46;;;;;;;15.55;9.90;;;;;;;10.86;100.00;99173.69;4985558;28;20043;-95
2022/11/08 17:05:17;;;;;;;16.00;9.60;;;;;;;10.95;100.00;99168.19;4986100;28;20054;-95
2022/11/08 17:07:44;;;;;;;12.23;9.07;;;;;;;10.90;100.00;99170.06;4986510;28;20407;-95
2022/11/08 17:10:17;;;;;;;16.00;9.93;;;;;;;10.99;100.00;99182.28;4983082;28;20051;-95
2022/11/08 17:12:45;;;;;;;18.05;9.50;;;;;;;10.98;100.00;99181.41;4982752;28;20135;-95
2022/11/08 17:15:13;;;;;;;20.05;9.98;;;;;;;10.96;100.00;99182.38;4983229;28;20502;-94
2022/11/08 17:17:40;;;;;;;17.48;9.60;;;;;;;11.07;100.00;99209.59;4981431;28;20058;-95
2022/11/08 17:20:07;;;;;;;14.52;8.50;;;;;;;10.96;100.00;99201.84;4985010;28;20070;-95
2022/11/08 17:22:34;;;;;;;16.35;9.55;;;;;;;10.85;100.00;99179.94;4984712;28;20057;-95
2022/11/08 17:25:00;;;;;;;16.40;8.75;;;;;;;10.87;100.00;99192.28;4980349;28;20493;-95
2022/11/08 17:27:29;;;;;;;19.10;11.38;;;;;;;10.89;100.00;99187.81;4979977;28;20054;-96
2022/11/08 17:29:59;;;;;;;18.83;9.95;;;;;;;11.07;100.00;99214.94;4980744;28;20050;-94